sensor_id;sensor_type;location;lat;lon;timestamp;P1;durP1;ratioP1;P2;durP2;ratioP2
41229;SDS011;26964;50.428;19.218;2023-06-14T00:00:58;12.9;;;8.3;;
41229;SDS011;26964;50.428;19.218;2023-06-14T00:01:58;11.2;;;7.7;;
41229;SDS011;26964;50.428;19.218;2023-06-14T00:02:58;11.8;;;7.8;;
41229;SDS011;26964;50.428;19.218;2023-06-14T00:03:58;11.4;;;7.7;;
41229;SDS011;26964;50.428;19.218;2023-06-14T00:04:58;12.7;;;8.7;;
41229;SDS011;26964;50.428;19.218;2023-06-14T00:05:58;10.6;;;7.6;;
41229;SDS011;26964;50.428;19.218;2023-06-14T00:06:57;11.1;;;7.2;;
41229;SDS011;26964;50.428;19.218;2023-06-14T00:07:58;10.2;;;7.2;;
41229;SDS011;26964;50.428;19.218;2023-06-14T00:08:58;9.7;;;7.0;;
41229;SDS011;26964;50.428;19.218;2023-06-14T00:09:58;10.3;;;7.2;;
41229;SDS011;26964;50.428;19.218;2023-06-14T00:10:57;13.5;;;7.9;;
41229;SDS011;26964;50.428;19.218;2023-06-14T00:11:58;11.8;;;8.0;;
41229;SDS011;26964;50.428;19.218;2023-06-14T00:12:58;11.3;;;6.9;;
41229;SDS011;26964;50.428;19.218;2023-06-14T00:13:58;10.6;;;7.0;;
41229;SDS011;26964;50.428;19.218;2023-06-14T00:14:58;10.6;;;7.1;;
41229;SDS011;26964;50.428;19.218;2023-06-14T00:15:58;11.0;;;7.1;;
41229;SDS011;26964;50.428;19.218;2023-06-14T00:16:58;10.2;;;6.5;;
41229;SDS011;26964;50.428;19.218;2023-06-14T00:17:58;10.7;;;7.3;;
41229;SDS011;26964;50.428;19.218;2023-06-14T00:18:59;11.5;;;7.4;;
41229;SDS011;26964;50.428;19.218;2023-06-14T00:19:58;11.5;;;7.3;;
41229;SDS011;26964;50.428;19.218;2023-06-14T00:20:58;10.0;;;6.8;;
41229;SDS011;26964;50.428;19.218;2023-06-14T00:21:58;11.0;;;7.3;;
41229;SDS011;26964;50.428;19.218;2023-06-14T00:22:58;9.3;;;7.0;;
41229;SDS011;26964;50.428;19.218;2023-06-14T00:23:58;9.9;;;7.4;;
41229;SDS011;26964;50.428;19.218;2023-06-14T00:24:58;11.4;;;7.4;;
41229;SDS011;26964;50.428;19.218;2023-06-14T00:25:58;12.0;;;7.3;;
41229;SDS011;26964;50.428;19.218;2023-06-14T00:26:58;9.1;;;6.5;;
41229;SDS011;26964;50.428;19.218;2023-06-14T00:27:58;10.6;;;7.7;;
41229;SDS011;26964;50.428;19.218;2023-06-14T00:28:58;9.7;;;6.8;;
41229;SDS011;26964;50.428;19.218;2023-06-14T00:29:57;11.5;;;7.6;;
41229;SDS011;26964;50.428;19.218;2023-06-14T00:30:58;10.0;;;7.5;;
41229;SDS011;26964;50.428;19.218;2023-06-14T00:31:57;12.0;;;7.7;;
41229;SDS011;26964;50.428;19.218;2023-06-14T00:32:58;11.2;;;7.2;;
41229;SDS011;26964;50.428;19.218;2023-06-14T00:33:58;9.2;;;7.3;;
41229;SDS011;26964;50.428;19.218;2023-06-14T00:34:57;12.6;;;8.5;;
41229;SDS011;26964;50.428;19.218;2023-06-14T00:35:58;12.9;;;8.0;;
41229;SDS011;26964;50.428;19.218;2023-06-14T00:36:57;12.4;;;7.9;;
41229;SDS011;26964;50.428;19.218;2023-06-14T00:37:58;12.1;;;7.6;;
41229;SDS011;26964;50.428;19.218;2023-06-14T00:38:58;12.3;;;7.5;;
41229;SDS011;26964;50.428;19.218;2023-06-14T00:39:57;12.6;;;8.1;;
41229;SDS011;26964;50.428;19.218;2023-06-14T00:40:59;11.4;;;7.2;;
41229;SDS011;26964;50.428;19.218;2023-06-14T00:41:57;11.8;;;8.2;;
41229;SDS011;26964;50.428;19.218;2023-06-14T00:42:58;13.3;;;8.3;;
41229;SDS011;26964;50.428;19.218;2023-06-14T00:43:57;12.5;;;8.1;;
41229;SDS011;26964;50.428;19.218;2023-06-14T00:44:58;11.4;;;7.8;;
41229;SDS011;26964;50.428;19.218;2023-06-14T00:45:58;12.9;;;7.8;;
41229;SDS011;26964;50.428;19.218;2023-06-14T00:46:58;12.8;;;8.0;;
41229;SDS011;26964;50.428;19.218;2023-06-14T00:47:58;12.0;;;8.0;;
41229;SDS011;26964;50.428;19.218;2023-06-14T00:48:58;10.5;;;8.1;;
41229;SDS011;26964;50.428;19.218;2023-06-14T00:49:58;11.3;;;8.0;;
41229;SDS011;26964;50.428;19.218;2023-06-14T00:50:58;11.0;;;8.1;;
41229;SDS011;26964;50.428;19.218;2023-06-14T00:51:57;13.7;;;8.6;;
41229;SDS011;26964;50.428;19.218;2023-06-14T00:52:58;12.9;;;8.4;;
41229;SDS011;26964;50.428;19.218;2023-06-14T00:53:57;11.9;;;7.9;;
41229;SDS011;26964;50.428;19.218;2023-06-14T00:54:58;11.7;;;7.9;;
41229;SDS011;26964;50.428;19.218;2023-06-14T00:55:58;11.2;;;8.0;;
41229;SDS011;26964;50.428;19.218;2023-06-14T00:56:57;12.6;;;8.3;;
41229;SDS011;26964;50.428;19.218;2023-06-14T00:57:58;10.7;;;7.9;;
41229;SDS011;26964;50.428;19.218;2023-06-14T00:58:58;12.5;;;8.4;;
41229;SDS011;26964;50.428;19.218;2023-06-14T00:59:57;12.8;;;7.9;;
41229;SDS011;26964;50.428;19.218;2023-06-14T01:00:57;11.4;;;7.8;;
41229;SDS011;26964;50.428;19.218;2023-06-14T01:01:59;11.2;;;7.9;;
41229;SDS011;26964;50.428;19.218;2023-06-14T01:02:57;13.1;;;8.4;;
41229;SDS011;26964;50.428;19.218;2023-06-14T01:03:57;11.4;;;7.6;;
41229;SDS011;26964;50.428;19.218;2023-06-14T01:04:58;9.3;;;6.8;;
41229;SDS011;26964;50.428;19.218;2023-06-14T01:05:59;11.5;;;7.3;;
41229;SDS011;26964;50.428;19.218;2023-06-14T01:06:59;13.9;;;8.7;;
41229;SDS011;26964;50.428;19.218;2023-06-14T01:11:00;10.0;;;7.2;;
41229;SDS011;26964;50.428;19.218;2023-06-14T01:11:59;9.6;;;6.8;;
41229;SDS011;26964;50.428;19.218;2023-06-14T01:12:58;10.2;;;7.2;;
41229;SDS011;26964;50.428;19.218;2023-06-14T01:13:58;10.8;;;7.5;;
41229;SDS011;26964;50.428;19.218;2023-06-14T01:14:57;10.1;;;6.8;;
41229;SDS011;26964;50.428;19.218;2023-06-14T01:15:57;12.8;;;7.7;;
41229;SDS011;26964;50.428;19.218;2023-06-14T01:16:57;9.6;;;7.3;;
41229;SDS011;26964;50.428;19.218;2023-06-14T01:17:57;11.5;;;7.7;;
41229;SDS011;26964;50.428;19.218;2023-06-14T01:18:57;12.0;;;8.5;;
41229;SDS011;26964;50.428;19.218;2023-06-14T01:19:58;12.5;;;8.3;;
41229;SDS011;26964;50.428;19.218;2023-06-14T01:20:57;10.9;;;7.9;;
41229;SDS011;26964;50.428;19.218;2023-06-14T01:21:57;13.4;;;9.1;;
41229;SDS011;26964;50.428;19.218;2023-06-14T01:22:59;14.3;;;9.7;;
41229;SDS011;26964;50.428;19.218;2023-06-14T01:23:57;12.3;;;8.8;;
41229;SDS011;26964;50.428;19.218;2023-06-14T01:24:57;14.3;;;9.2;;
41229;SDS011;26964;50.428;19.218;2023-06-14T01:25:58;13.8;;;8.2;;
41229;SDS011;26964;50.428;19.218;2023-06-14T01:26:57;12.8;;;8.8;;
41229;SDS011;26964;50.428;19.218;2023-06-14T01:27:58;11.3;;;8.1;;
41229;SDS011;26964;50.428;19.218;2023-06-14T01:28:57;12.6;;;8.4;;
41229;SDS011;26964;50.428;19.218;2023-06-14T01:29:57;14.7;;;8.1;;
41229;SDS011;26964;50.428;19.218;2023-06-14T01:30:59;13.8;;;8.7;;
41229;SDS011;26964;50.428;19.218;2023-06-14T01:31:58;12.0;;;8.4;;
41229;SDS011;26964;50.428;19.218;2023-06-14T01:32:57;11.9;;;8.5;;
41229;SDS011;26964;50.428;19.218;2023-06-14T01:33:57;14.6;;;8.3;;
41229;SDS011;26964;50.428;19.218;2023-06-14T01:34:57;11.3;;;8.6;;
41229;SDS011;26964;50.428;19.218;2023-06-14T01:35:58;11.0;;;8.2;;
41229;SDS011;26964;50.428;19.218;2023-06-14T01:36:57;10.7;;;7.8;;
41229;SDS011;26964;50.428;19.218;2023-06-14T01:37:57;14.5;;;9.4;;
41229;SDS011;26964;50.428;19.218;2023-06-14T01:38:58;11.1;;;8.2;;
41229;SDS011;26964;50.428;19.218;2023-06-14T01:39:58;13.0;;;8.2;;
41229;SDS011;26964;50.428;19.218;2023-06-14T01:40:57;11.7;;;8.4;;
41229;SDS011;26964;50.428;19.218;2023-06-14T01:41:58;11.8;;;8.5;;
41229;SDS011;26964;50.428;19.218;2023-06-14T01:42:58;13.8;;;8.5;;
41229;SDS011;26964;50.428;19.218;2023-06-14T01:43:59;12.7;;;8.5;;
41229;SDS011;26964;50.428;19.218;2023-06-14T01:44:58;14.1;;;8.8;;
41229;SDS011;26964;50.428;19.218;2023-06-14T01:45:57;13.8;;;9.2;;
41229;SDS011;26964;50.428;19.218;2023-06-14T01:46:57;12.9;;;8.7;;
41229;SDS011;26964;50.428;19.218;2023-06-14T01:47:57;12.4;;;8.6;;
41229;SDS011;26964;50.428;19.218;2023-06-14T01:48:57;12.8;;;9.0;;
41229;SDS011;26964;50.428;19.218;2023-06-14T01:49:57;14.5;;;9.1;;
41229;SDS011;26964;50.428;19.218;2023-06-14T01:50:57;14.2;;;9.6;;
41229;SDS011;26964;50.428;19.218;2023-06-14T01:51:58;11.8;;;8.3;;
41229;SDS011;26964;50.428;19.218;2023-06-14T01:52:58;13.6;;;9.5;;
41229;SDS011;26964;50.428;19.218;2023-06-14T01:53:57;14.3;;;9.0;;
41229;SDS011;26964;50.428;19.218;2023-06-14T01:54:57;12.1;;;9.3;;
41229;SDS011;26964;50.428;19.218;2023-06-14T01:55:57;14.9;;;9.3;;
41229;SDS011;26964;50.428;19.218;2023-06-14T01:56:57;15.7;;;9.8;;
41229;SDS011;26964;50.428;19.218;2023-06-14T01:57:57;12.1;;;8.8;;
41229;SDS011;26964;50.428;19.218;2023-06-14T01:58:58;12.2;;;8.5;;
41229;SDS011;26964;50.428;19.218;2023-06-14T01:59:57;11.8;;;8.6;;
41229;SDS011;26964;50.428;19.218;2023-06-14T02:00:57;14.2;;;9.4;;
41229;SDS011;26964;50.428;19.218;2023-06-14T02:01:57;12.6;;;8.4;;
41229;SDS011;26964;50.428;19.218;2023-06-14T02:02:57;13.7;;;9.1;;
41229;SDS011;26964;50.428;19.218;2023-06-14T02:03:58;12.8;;;8.8;;
41229;SDS011;26964;50.428;19.218;2023-06-14T02:04:57;14.0;;;8.6;;
41229;SDS011;26964;50.428;19.218;2023-06-14T02:06:00;12.4;;;8.7;;
41229;SDS011;26964;50.428;19.218;2023-06-14T02:06:57;11.8;;;8.5;;
41229;SDS011;26964;50.428;19.218;2023-06-14T02:07:57;14.5;;;9.9;;
41229;SDS011;26964;50.428;19.218;2023-06-14T02:08:57;13.9;;;9.4;;
41229;SDS011;26964;50.428;19.218;2023-06-14T02:09:57;16.5;;;10.0;;
41229;SDS011;26964;50.428;19.218;2023-06-14T02:10:57;13.6;;;8.7;;
41229;SDS011;26964;50.428;19.218;2023-06-14T02:11:57;15.3;;;10.1;;
41229;SDS011;26964;50.428;19.218;2023-06-14T02:12:58;16.1;;;9.6;;
41229;SDS011;26964;50.428;19.218;2023-06-14T02:13:57;16.0;;;9.4;;
41229;SDS011;26964;50.428;19.218;2023-06-14T02:14:57;13.8;;;10.3;;
41229;SDS011;26964;50.428;19.218;2023-06-14T02:15:57;14.8;;;9.6;;
41229;SDS011;26964;50.428;19.218;2023-06-14T02:16:57;14.4;;;10.2;;
41229;SDS011;26964;50.428;19.218;2023-06-14T02:17:57;17.6;;;11.0;;
41229;SDS011;26964;50.428;19.218;2023-06-14T02:18:57;17.6;;;11.7;;
41229;SDS011;26964;50.428;19.218;2023-06-14T02:19:57;18.0;;;10.8;;
41229;SDS011;26964;50.428;19.218;2023-06-14T02:20:57;14.5;;;9.9;;
41229;SDS011;26964;50.428;19.218;2023-06-14T02:21:57;15.2;;;10.3;;
41229;SDS011;26964;50.428;19.218;2023-06-14T02:22:57;16.0;;;10.5;;
41229;SDS011;26964;50.428;19.218;2023-06-14T02:23:57;15.1;;;10.0;;
41229;SDS011;26964;50.428;19.218;2023-06-14T02:24:58;18.3;;;11.4;;
41229;SDS011;26964;50.428;19.218;2023-06-14T02:25:58;14.4;;;10.6;;
41229;SDS011;26964;50.428;19.218;2023-06-14T02:27:00;15.7;;;9.9;;
41229;SDS011;26964;50.428;19.218;2023-06-14T02:27:57;14.6;;;9.6;;
41229;SDS011;26964;50.428;19.218;2023-06-14T02:28:57;14.5;;;10.5;;
41229;SDS011;26964;50.428;19.218;2023-06-14T02:29:57;16.0;;;10.3;;
41229;SDS011;26964;50.428;19.218;2023-06-14T02:30:58;15.7;;;11.1;;
41229;SDS011;26964;50.428;19.218;2023-06-14T02:31:57;12.5;;;9.8;;
41229;SDS011;26964;50.428;19.218;2023-06-14T02:32:57;14.6;;;10.0;;
41229;SDS011;26964;50.428;19.218;2023-06-14T02:33:57;18.5;;;11.7;;
41229;SDS011;26964;50.428;19.218;2023-06-14T02:34:57;14.7;;;10.8;;
41229;SDS011;26964;50.428;19.218;2023-06-14T02:35:57;16.2;;;11.2;;
41229;SDS011;26964;50.428;19.218;2023-06-14T02:36:57;20.6;;;11.9;;
41229;SDS011;26964;50.428;19.218;2023-06-14T02:37:57;17.3;;;11.6;;
41229;SDS011;26964;50.428;19.218;2023-06-14T02:38:57;14.7;;;10.2;;
41229;SDS011;26964;50.428;19.218;2023-06-14T02:39:58;13.8;;;10.4;;
41229;SDS011;26964;50.428;19.218;2023-06-14T02:40:57;15.1;;;11.2;;
41229;SDS011;26964;50.428;19.218;2023-06-14T02:41:57;16.1;;;10.5;;
41229;SDS011;26964;50.428;19.218;2023-06-14T02:42:58;15.3;;;10.2;;
41229;SDS011;26964;50.428;19.218;2023-06-14T02:43:57;13.9;;;10.0;;
41229;SDS011;26964;50.428;19.218;2023-06-14T02:44:57;18.1;;;11.3;;
41229;SDS011;26964;50.428;19.218;2023-06-14T02:45:57;15.3;;;11.2;;
41229;SDS011;26964;50.428;19.218;2023-06-14T02:46:57;17.2;;;11.0;;
41229;SDS011;26964;50.428;19.218;2023-06-14T02:48:00;15.5;;;10.8;;
41229;SDS011;26964;50.428;19.218;2023-06-14T02:48:57;18.0;;;10.8;;
41229;SDS011;26964;50.428;19.218;2023-06-14T02:49:58;16.5;;;11.5;;
41229;SDS011;26964;50.428;19.218;2023-06-14T02:50:57;15.9;;;11.1;;
41229;SDS011;26964;50.428;19.218;2023-06-14T02:51:57;18.0;;;10.9;;
41229;SDS011;26964;50.428;19.218;2023-06-14T02:52:57;16.0;;;11.2;;
41229;SDS011;26964;50.428;19.218;2023-06-14T02:53:57;15.5;;;10.5;;
41229;SDS011;26964;50.428;19.218;2023-06-14T02:54:57;15.0;;;10.9;;
41229;SDS011;26964;50.428;19.218;2023-06-14T02:55:57;15.1;;;11.6;;
41229;SDS011;26964;50.428;19.218;2023-06-14T02:56:57;14.7;;;10.6;;
41229;SDS011;26964;50.428;19.218;2023-06-14T02:57:57;16.2;;;11.3;;
41229;SDS011;26964;50.428;19.218;2023-06-14T02:58:58;15.9;;;10.7;;
41229;SDS011;26964;50.428;19.218;2023-06-14T02:59:57;16.4;;;11.6;;
41229;SDS011;26964;50.428;19.218;2023-06-14T03:00:57;15.7;;;11.3;;
41229;SDS011;26964;50.428;19.218;2023-06-14T03:01:57;14.9;;;11.2;;
41229;SDS011;26964;50.428;19.218;2023-06-14T03:02:57;18.2;;;11.5;;
41229;SDS011;26964;50.428;19.218;2023-06-14T03:03:57;16.3;;;11.1;;
41229;SDS011;26964;50.428;19.218;2023-06-14T03:04:57;15.2;;;10.6;;
41229;SDS011;26964;50.428;19.218;2023-06-14T03:05:57;15.6;;;10.5;;
41229;SDS011;26964;50.428;19.218;2023-06-14T03:06:58;18.3;;;11.4;;
41229;SDS011;26964;50.428;19.218;2023-06-14T03:07:57;15.4;;;10.5;;
41229;SDS011;26964;50.428;19.218;2023-06-14T03:09:01;15.9;;;11.2;;
41229;SDS011;26964;50.428;19.218;2023-06-14T03:09:58;15.3;;;10.8;;
41229;SDS011;26964;50.428;19.218;2023-06-14T03:10:57;14.1;;;10.6;;
41229;SDS011;26964;50.428;19.218;2023-06-14T03:11:57;16.7;;;11.6;;
41229;SDS011;26964;50.428;19.218;2023-06-14T03:12:57;16.4;;;10.4;;
41229;SDS011;26964;50.428;19.218;2023-06-14T03:13:57;15.9;;;11.3;;
41229;SDS011;26964;50.428;19.218;2023-06-14T03:14:57;15.0;;;10.4;;
41229;SDS011;26964;50.428;19.218;2023-06-14T03:15:57;16.2;;;10.7;;
41229;SDS011;26964;50.428;19.218;2023-06-14T03:16:57;16.7;;;10.9;;
41229;SDS011;26964;50.428;19.218;2023-06-14T03:17:57;18.8;;;10.8;;
41229;SDS011;26964;50.428;19.218;2023-06-14T03:18:57;17.5;;;11.3;;
41229;SDS011;26964;50.428;19.218;2023-06-14T03:19:57;16.3;;;11.7;;
41229;SDS011;26964;50.428;19.218;2023-06-14T03:20:57;17.5;;;11.4;;
41229;SDS011;26964;50.428;19.218;2023-06-14T03:21:57;18.9;;;11.8;;
41229;SDS011;26964;50.428;19.218;2023-06-14T03:22:57;18.3;;;11.3;;
41229;SDS011;26964;50.428;19.218;2023-06-14T03:23:58;17.5;;;10.8;;
41229;SDS011;26964;50.428;19.218;2023-06-14T03:24:57;15.3;;;11.2;;
41229;SDS011;26964;50.428;19.218;2023-06-14T03:25:57;17.0;;;11.1;;
41229;SDS011;26964;50.428;19.218;2023-06-14T03:26:57;19.7;;;12.1;;
41229;SDS011;26964;50.428;19.218;2023-06-14T03:27:57;17.3;;;11.1;;
41229;SDS011;26964;50.428;19.218;2023-06-14T03:28:57;22.9;;;12.9;;
41229;SDS011;26964;50.428;19.218;2023-06-14T03:30:01;18.4;;;11.4;;
41229;SDS011;26964;50.428;19.218;2023-06-14T03:30:57;17.5;;;11.8;;
41229;SDS011;26964;50.428;19.218;2023-06-14T03:31:58;21.4;;;12.3;;
41229;SDS011;26964;50.428;19.218;2023-06-14T03:32:57;20.2;;;12.4;;
41229;SDS011;26964;50.428;19.218;2023-06-14T03:33:58;20.2;;;11.7;;
41229;SDS011;26964;50.428;19.218;2023-06-14T03:34:58;18.7;;;12.5;;
41229;SDS011;26964;50.428;19.218;2023-06-14T03:35:57;20.6;;;13.4;;
41229;SDS011;26964;50.428;19.218;2023-06-14T03:36:57;23.4;;;14.0;;
41229;SDS011;26964;50.428;19.218;2023-06-14T03:37:57;20.9;;;13.3;;
41229;SDS011;26964;50.428;19.218;2023-06-14T03:38:57;19.9;;;13.2;;
41229;SDS011;26964;50.428;19.218;2023-06-14T03:39:57;20.1;;;13.7;;
41229;SDS011;26964;50.428;19.218;2023-06-14T03:40:57;21.0;;;14.3;;
41229;SDS011;26964;50.428;19.218;2023-06-14T03:41:57;21.3;;;14.1;;
41229;SDS011;26964;50.428;19.218;2023-06-14T03:42:57;20.7;;;13.0;;
41229;SDS011;26964;50.428;19.218;2023-06-14T03:43:57;24.2;;;14.1;;
41229;SDS011;26964;50.428;19.218;2023-06-14T03:44:57;22.0;;;14.6;;
41229;SDS011;26964;50.428;19.218;2023-06-14T03:45:58;24.4;;;14.5;;
41229;SDS011;26964;50.428;19.218;2023-06-14T03:46:57;22.8;;;14.3;;
41229;SDS011;26964;50.428;19.218;2023-06-14T03:47:57;22.1;;;14.8;;
41229;SDS011;26964;50.428;19.218;2023-06-14T03:48:57;21.8;;;14.5;;
41229;SDS011;26964;50.428;19.218;2023-06-14T03:49:58;25.3;;;15.6;;
41229;SDS011;26964;50.428;19.218;2023-06-14T03:51:01;24.2;;;15.5;;
41229;SDS011;26964;50.428;19.218;2023-06-14T03:51:57;24.4;;;15.3;;
41229;SDS011;26964;50.428;19.218;2023-06-14T03:52:57;24.5;;;15.4;;
41229;SDS011;26964;50.428;19.218;2023-06-14T03:53:57;25.5;;;15.5;;
41229;SDS011;26964;50.428;19.218;2023-06-14T03:54:57;24.8;;;15.4;;
41229;SDS011;26964;50.428;19.218;2023-06-14T03:55:57;24.7;;;15.6;;
41229;SDS011;26964;50.428;19.218;2023-06-14T03:56:57;24.1;;;15.4;;
41229;SDS011;26964;50.428;19.218;2023-06-14T03:57:57;24.1;;;16.0;;
41229;SDS011;26964;50.428;19.218;2023-06-14T03:58:57;24.2;;;15.8;;
41229;SDS011;26964;50.428;19.218;2023-06-14T03:59:57;23.6;;;15.2;;
41229;SDS011;26964;50.428;19.218;2023-06-14T04:00:57;24.6;;;15.1;;
41229;SDS011;26964;50.428;19.218;2023-06-14T04:01:57;21.2;;;15.0;;
41229;SDS011;26964;50.428;19.218;2023-06-14T04:02:57;23.6;;;15.0;;
41229;SDS011;26964;50.428;19.218;2023-06-14T04:03:57;23.2;;;14.5;;
41229;SDS011;26964;50.428;19.218;2023-06-14T04:04:57;25.4;;;14.8;;
41229;SDS011;26964;50.428;19.218;2023-06-14T04:05:57;23.5;;;15.6;;
41229;SDS011;26964;50.428;19.218;2023-06-14T04:06:57;25.5;;;16.8;;
41229;SDS011;26964;50.428;19.218;2023-06-14T04:07:57;21.5;;;15.6;;
41229;SDS011;26964;50.428;19.218;2023-06-14T04:08:58;21.5;;;15.2;;
41229;SDS011;26964;50.428;19.218;2023-06-14T04:09:57;23.9;;;16.0;;
41229;SDS011;26964;50.428;19.218;2023-06-14T04:10:57;22.8;;;15.3;;
41229;SDS011;26964;50.428;19.218;2023-06-14T04:12:00;25.6;;;15.8;;
41229;SDS011;26964;50.428;19.218;2023-06-14T04:12:57;22.3;;;16.0;;
41229;SDS011;26964;50.428;19.218;2023-06-14T04:13:57;26.7;;;16.4;;
41229;SDS011;26964;50.428;19.218;2023-06-14T04:14:57;22.0;;;15.4;;
41229;SDS011;26964;50.428;19.218;2023-06-14T04:15:57;24.0;;;16.0;;
41229;SDS011;26964;50.428;19.218;2023-06-14T04:16:57;21.9;;;15.8;;
41229;SDS011;26964;50.428;19.218;2023-06-14T04:17:57;24.4;;;15.5;;
41229;SDS011;26964;50.428;19.218;2023-06-14T04:18:57;21.9;;;15.8;;
41229;SDS011;26964;50.428;19.218;2023-06-14T04:19:57;23.6;;;15.3;;
41229;SDS011;26964;50.428;19.218;2023-06-14T04:20:57;22.0;;;15.8;;
41229;SDS011;26964;50.428;19.218;2023-06-14T04:21:57;22.4;;;16.0;;
41229;SDS011;26964;50.428;19.218;2023-06-14T04:22:57;21.8;;;15.3;;
41229;SDS011;26964;50.428;19.218;2023-06-14T04:23:57;22.9;;;16.0;;
41229;SDS011;26964;50.428;19.218;2023-06-14T04:24:57;21.1;;;14.5;;
41229;SDS011;26964;50.428;19.218;2023-06-14T04:25:57;22.0;;;15.3;;
41229;SDS011;26964;50.428;19.218;2023-06-14T04:26:57;21.9;;;16.5;;
41229;SDS011;26964;50.428;19.218;2023-06-14T04:27:57;23.5;;;15.4;;
41229;SDS011;26964;50.428;19.218;2023-06-14T04:28:58;22.7;;;16.2;;
41229;SDS011;26964;50.428;19.218;2023-06-14T04:29:57;20.3;;;15.1;;
41229;SDS011;26964;50.428;19.218;2023-06-14T04:30:57;21.1;;;15.5;;
41229;SDS011;26964;50.428;19.218;2023-06-14T04:31:57;22.8;;;15.9;;
41229;SDS011;26964;50.428;19.218;2023-06-14T04:33:00;20.2;;;14.7;;
41229;SDS011;26964;50.428;19.218;2023-06-14T04:33:57;19.8;;;15.4;;
41229;SDS011;26964;50.428;19.218;2023-06-14T04:34:57;21.7;;;15.5;;
41229;SDS011;26964;50.428;19.218;2023-06-14T04:35:57;23.0;;;15.7;;
41229;SDS011;26964;50.428;19.218;2023-06-14T04:36:57;20.6;;;15.3;;
41229;SDS011;26964;50.428;19.218;2023-06-14T04:37:57;20.3;;;14.3;;
41229;SDS011;26964;50.428;19.218;2023-06-14T04:38:57;23.2;;;14.8;;
41229;SDS011;26964;50.428;19.218;2023-06-14T04:39:57;22.0;;;14.5;;
41229;SDS011;26964;50.428;19.218;2023-06-14T04:40:57;21.6;;;15.8;;
41229;SDS011;26964;50.428;19.218;2023-06-14T04:41:57;20.0;;;14.9;;
41229;SDS011;26964;50.428;19.218;2023-06-14T04:42:58;21.1;;;15.6;;
41229;SDS011;26964;50.428;19.218;2023-06-14T04:43:57;21.8;;;15.4;;
41229;SDS011;26964;50.428;19.218;2023-06-14T04:44:57;21.8;;;15.4;;
41229;SDS011;26964;50.428;19.218;2023-06-14T04:45:57;20.1;;;15.9;;
41229;SDS011;26964;50.428;19.218;2023-06-14T04:46:57;23.6;;;15.0;;
41229;SDS011;26964;50.428;19.218;2023-06-14T04:47:58;20.3;;;15.6;;
41229;SDS011;26964;50.428;19.218;2023-06-14T04:48:57;19.7;;;15.3;;
41229;SDS011;26964;50.428;19.218;2023-06-14T04:49:57;25.3;;;16.2;;
41229;SDS011;26964;50.428;19.218;2023-06-14T04:50:57;21.0;;;16.0;;
41229;SDS011;26964;50.428;19.218;2023-06-14T04:51:57;21.6;;;14.8;;
41229;SDS011;26964;50.428;19.218;2023-06-14T04:52:58;18.2;;;15.0;;
41229;SDS011;26964;50.428;19.218;2023-06-14T04:54:00;21.5;;;15.8;;
41229;SDS011;26964;50.428;19.218;2023-06-14T04:54:57;21.0;;;15.4;;
41229;SDS011;26964;50.428;19.218;2023-06-14T04:55:57;19.5;;;15.5;;
41229;SDS011;26964;50.428;19.218;2023-06-14T04:56:57;21.6;;;15.9;;
41229;SDS011;26964;50.428;19.218;2023-06-14T04:57:57;21.3;;;16.4;;
41229;SDS011;26964;50.428;19.218;2023-06-14T04:58:57;20.7;;;16.5;;
41229;SDS011;26964;50.428;19.218;2023-06-14T04:59:57;21.9;;;16.6;;
41229;SDS011;26964;50.428;19.218;2023-06-14T05:00:57;21.9;;;15.7;;
41229;SDS011;26964;50.428;19.218;2023-06-14T05:01:57;22.2;;;16.0;;
41229;SDS011;26964;50.428;19.218;2023-06-14T05:02:57;21.6;;;15.5;;
41229;SDS011;26964;50.428;19.218;2023-06-14T05:03:57;21.4;;;15.9;;
41229;SDS011;26964;50.428;19.218;2023-06-14T05:04:57;20.7;;;15.4;;
41229;SDS011;26964;50.428;19.218;2023-06-14T05:05:57;18.9;;;15.5;;
41229;SDS011;26964;50.428;19.218;2023-06-14T05:06:57;19.6;;;15.5;;
41229;SDS011;26964;50.428;19.218;2023-06-14T05:07:57;19.7;;;15.6;;
41229;SDS011;26964;50.428;19.218;2023-06-14T05:08:57;21.5;;;16.3;;
41229;SDS011;26964;50.428;19.218;2023-06-14T05:09:57;20.6;;;15.2;;
41229;SDS011;26964;50.428;19.218;2023-06-14T05:10:57;20.2;;;16.1;;
41229;SDS011;26964;50.428;19.218;2023-06-14T05:11:57;21.7;;;16.8;;
41229;SDS011;26964;50.428;19.218;2023-06-14T05:12:57;20.7;;;15.5;;
41229;SDS011;26964;50.428;19.218;2023-06-14T05:13:57;20.3;;;16.0;;
41229;SDS011;26964;50.428;19.218;2023-06-14T05:14:57;20.3;;;16.4;;
41229;SDS011;26964;50.428;19.218;2023-06-14T05:15:59;21.3;;;16.3;;
41229;SDS011;26964;50.428;19.218;2023-06-14T05:16:57;22.6;;;16.6;;
41229;SDS011;26964;50.428;19.218;2023-06-14T05:17:57;21.1;;;15.6;;
41229;SDS011;26964;50.428;19.218;2023-06-14T05:18:57;21.0;;;15.1;;
41229;SDS011;26964;50.428;19.218;2023-06-14T05:19:57;19.8;;;14.4;;
41229;SDS011;26964;50.428;19.218;2023-06-14T05:20:57;19.1;;;14.2;;
41229;SDS011;26964;50.428;19.218;2023-06-14T05:21:57;20.8;;;14.8;;
41229;SDS011;26964;50.428;19.218;2023-06-14T05:22:57;17.9;;;14.4;;
41229;SDS011;26964;50.428;19.218;2023-06-14T05:23:57;17.2;;;13.8;;
41229;SDS011;26964;50.428;19.218;2023-06-14T05:24:57;18.9;;;14.3;;
41229;SDS011;26964;50.428;19.218;2023-06-14T05:25:57;18.1;;;13.8;;
41229;SDS011;26964;50.428;19.218;2023-06-14T05:26:57;17.2;;;14.5;;
41229;SDS011;26964;50.428;19.218;2023-06-14T05:27:57;18.7;;;15.1;;
41229;SDS011;26964;50.428;19.218;2023-06-14T05:28:57;16.0;;;13.7;;
41229;SDS011;26964;50.428;19.218;2023-06-14T05:29:57;17.3;;;13.5;;
41229;SDS011;26964;50.428;19.218;2023-06-14T05:30:57;17.0;;;13.7;;
41229;SDS011;26964;50.428;19.218;2023-06-14T05:31:57;18.5;;;14.2;;
41229;SDS011;26964;50.428;19.218;2023-06-14T05:32:57;17.1;;;13.4;;
41229;SDS011;26964;50.428;19.218;2023-06-14T05:33:57;18.2;;;14.8;;
41229;SDS011;26964;50.428;19.218;2023-06-14T05:34:57;16.1;;;13.4;;
41229;SDS011;26964;50.428;19.218;2023-06-14T05:35:57;16.4;;;13.6;;
41229;SDS011;26964;50.428;19.218;2023-06-14T05:36:58;17.4;;;13.7;;
41229;SDS011;26964;50.428;19.218;2023-06-14T05:37:57;17.0;;;12.8;;
41229;SDS011;26964;50.428;19.218;2023-06-14T05:38:57;14.6;;;12.5;;
41229;SDS011;26964;50.428;19.218;2023-06-14T05:39:57;15.9;;;12.4;;
41229;SDS011;26964;50.428;19.218;2023-06-14T05:40:57;16.7;;;12.5;;
41229;SDS011;26964;50.428;19.218;2023-06-14T05:41:57;15.8;;;12.7;;
41229;SDS011;26964;50.428;19.218;2023-06-14T05:42:57;14.7;;;12.4;;
41229;SDS011;26964;50.428;19.218;2023-06-14T05:43:57;16.0;;;12.3;;
41229;SDS011;26964;50.428;19.218;2023-06-14T05:44:57;18.8;;;13.2;;
41229;SDS011;26964;50.428;19.218;2023-06-14T05:45:57;14.9;;;11.3;;
41229;SDS011;26964;50.428;19.218;2023-06-14T05:46:57;17.2;;;12.5;;
41229;SDS011;26964;50.428;19.218;2023-06-14T05:47:57;15.7;;;11.7;;
41229;SDS011;26964;50.428;19.218;2023-06-14T05:48:57;13.8;;;11.8;;
41229;SDS011;26964;50.428;19.218;2023-06-14T05:49:57;14.7;;;12.0;;
41229;SDS011;26964;50.428;19.218;2023-06-14T05:50:58;12.7;;;11.2;;
41229;SDS011;26964;50.428;19.218;2023-06-14T05:51:57;13.3;;;10.7;;
41229;SDS011;26964;50.428;19.218;2023-06-14T05:52:57;14.8;;;11.7;;
41229;SDS011;26964;50.428;19.218;2023-06-14T05:53:57;12.9;;;11.5;;
41229;SDS011;26964;50.428;19.218;2023-06-14T05:54:57;14.7;;;11.7;;
41229;SDS011;26964;50.428;19.218;2023-06-14T05:55:57;15.9;;;12.3;;
41229;SDS011;26964;50.428;19.218;2023-06-14T05:56:57;17.2;;;12.6;;
41229;SDS011;26964;50.428;19.218;2023-06-14T05:57:57;12.7;;;10.7;;
41229;SDS011;26964;50.428;19.218;2023-06-14T05:58:59;14.2;;;11.5;;
41229;SDS011;26964;50.428;19.218;2023-06-14T05:59:57;14.4;;;12.3;;
41229;SDS011;26964;50.428;19.218;2023-06-14T06:00:57;14.1;;;11.7;;
41229;SDS011;26964;50.428;19.218;2023-06-14T06:01:57;12.7;;;10.5;;